createdAt,value
2022-08-28T00:02:27.923Z,100.00
2022-08-28T00:07:28.764Z,100.00
2022-08-28T00:12:31.555Z,100.00
2022-08-28T00:17:32.268Z,100.00
2022-08-28T00:22:32.961Z,100.00
2022-08-28T00:27:52.822Z,100.00
2022-08-28T00:32:55.437Z,100.00
2022-08-28T00:37:56.719Z,100.00
2022-08-28T00:43:00.331Z,100.00
2022-08-28T00:48:01.098Z,100.00
2022-08-28T00:53:02.317Z,100.00
2022-08-28T00:58:06.844Z,100.00
2022-08-28T01:03:08.648Z,100.00
2022-08-28T01:08:09.506Z,100.00
2022-08-28T01:13:14.912Z,100.00
2022-08-28T01:18:17.101Z,100.00
2022-08-28T01:23:26.138Z,100.00
2022-08-28T01:28:28.167Z,100.00
2022-08-28T01:33:28.913Z,100.00
2022-08-28T01:38:29.572Z,100.00
2022-08-28T01:43:31.822Z,100.00
2022-08-28T01:48:36.052Z,100.00
2022-08-28T01:53:37.061Z,100.00
2022-08-28T01:58:40.248Z,100.00
2022-08-28T02:03:43.131Z,100.00
2022-08-28T02:08:43.919Z,100.00
2022-08-28T02:13:45.912Z,100.00
2022-08-28T02:18:51.653Z,100.00
2022-08-28T02:23:52.698Z,100.00
2022-08-28T02:28:54.734Z,100.00
2022-08-28T02:33:55.921Z,100.00
2022-08-28T02:38:57.841Z,100.00
2022-08-28T02:44:00.083Z,100.00
2022-08-28T02:49:00.833Z,100.00
2022-08-28T02:54:02.806Z,100.00
2022-08-28T02:59:04.852Z,100.00
2022-08-28T03:04:06.355Z,100.00
2022-08-28T03:09:07.322Z,100.00
2022-08-28T03:14:09.460Z,100.00
2022-08-28T03:19:10.131Z,100.00
2022-08-28T03:24:10.971Z,100.00
2022-08-28T03:29:17.301Z,100.00
2022-08-28T03:34:17.985Z,100.00
2022-08-28T03:39:18.653Z,100.00
2022-08-28T03:44:20.641Z,100.00
2022-08-28T03:49:21.309Z,100.00
2022-08-28T03:54:21.968Z,100.00
2022-08-28T03:59:26.126Z,100.00
2022-08-28T04:04:32.476Z,100.00
2022-08-28T04:09:33.233Z,100.00
2022-08-28T04:14:35.734Z,100.00
2022-08-28T04:19:36.572Z,100.00
2022-08-28T04:24:37.352Z,100.00
2022-08-28T04:29:39.365Z,100.00
2022-08-28T04:34:40.477Z,100.00
2022-08-28T04:39:41.175Z,100.00
2022-08-28T04:44:43.281Z,100.00
2022-08-28T04:49:44.030Z,100.00
2022-08-28T04:54:44.706Z,100.00
2022-08-28T04:59:46.777Z,100.00
2022-08-28T05:04:47.707Z,100.00
2022-08-28T05:09:48.400Z,100.00
2022-08-28T05:14:50.863Z,100.00
2022-08-28T05:19:52.308Z,100.00
2022-08-28T05:24:52.977Z,100.00
2022-08-28T05:29:58.524Z,100.00
2022-08-28T05:35:02.367Z,100.00
2022-08-28T05:40:03.513Z,100.00
2022-08-28T05:45:06.659Z,99.15
2022-08-28T05:50:08.942Z,99.09
2022-08-28T05:55:12.976Z,98.16
2022-08-28T06:00:15.977Z,97.04
2022-08-28T06:05:16.934Z,96.95
2022-08-28T06:10:17.731Z,96.75
2022-08-28T06:15:21.231Z,96.39
2022-08-28T06:20:21.903Z,96.53
2022-08-28T06:25:22.680Z,96.32
2022-08-28T06:30:24.683Z,95.19
2022-08-28T06:35:25.356Z,92.61
2022-08-28T06:40:26.667Z,90.80
2022-08-28T06:45:28.792Z,90.86
2022-08-28T06:50:29.733Z,89.88
2022-08-28T06:55:30.421Z,89.17
2022-08-28T07:00:32.735Z,89.34
2022-08-28T07:05:34.010Z,88.78
2022-08-28T07:10:34.741Z,87.81
2022-08-28T07:15:36.821Z,87.23
2022-08-28T07:20:42.566Z,86.80
2022-08-28T07:25:43.235Z,85.89
2022-08-28T07:30:45.774Z,85.32
2022-08-28T07:35:47.121Z,83.25
2022-08-28T07:40:48.219Z,81.98
2022-08-28T07:45:59.825Z,80.89
2022-08-28T07:51:00.597Z,79.53
2022-08-28T07:56:01.263Z,78.84
2022-08-28T08:01:03.305Z,78.30
2022-08-28T08:06:05.678Z,77.34
2022-08-28T08:11:11.258Z,79.00
2022-08-28T08:16:18.977Z,77.90
2022-08-28T08:21:22.333Z,78.80
2022-08-28T08:26:25.664Z,78.47
2022-08-28T08:31:32.341Z,76.90
2022-08-28T08:36:35.099Z,77.09
2022-08-28T08:41:48.938Z,75.63
2022-08-28T08:47:04.492Z,76.44
2022-08-28T08:52:24.364Z,76.07
2022-08-28T08:57:25.269Z,75.44
2022-08-28T09:02:34.680Z,75.87
2022-08-28T09:07:39.998Z,75.76
2022-08-28T09:12:51.234Z,75.59
2022-08-28T09:17:58.289Z,75.08
2022-08-28T09:22:59.048Z,74.68
2022-08-28T09:28:07.850Z,74.36
2022-08-28T09:33:10.083Z,73.43
2022-08-28T09:38:19.817Z,73.44
2022-08-28T09:43:28.825Z,72.95
2022-08-28T09:48:36.748Z,73.52
2022-08-28T09:53:44.047Z,72.87
2022-08-28T09:58:48.091Z,73.43
2022-08-28T10:03:54.489Z,72.92
2022-08-28T10:09:03.614Z,71.47
2022-08-28T10:14:19.894Z,69.87
2022-08-28T10:19:33.055Z,68.95
2022-08-28T10:24:57.258Z,69.16
2022-08-28T10:30:08.919Z,67.58
2022-08-28T10:35:17.136Z,66.53
2022-08-28T10:40:24.624Z,65.56
2022-08-28T10:45:27.281Z,64.59
2022-08-28T10:50:35.728Z,65.37
2022-08-28T10:55:39.909Z,64.77
2022-08-28T11:00:43.158Z,64.89
2022-08-28T11:05:53.798Z,63.91
2022-08-28T11:10:56.299Z,62.56
2022-08-28T11:15:57.319Z,61.80
2022-08-28T11:21:12.232Z,61.71
2022-08-28T11:26:15.864Z,62.96
2022-08-28T11:31:38.912Z,63.51
2022-08-28T11:37:01.751Z,62.85
2022-08-28T11:42:38.424Z,62.64
2022-08-28T11:47:56.323Z,61.41
2022-08-28T11:53:36.462Z,60.97
2022-08-28T11:58:45.582Z,61.43
2022-08-28T12:03:57.524Z,61.43
2022-08-28T12:09:07.309Z,61.38
2022-08-28T12:14:10.312Z,61.17
2022-08-28T12:19:11.490Z,60.63
2022-08-28T12:24:22.347Z,59.62
2022-08-28T12:29:30.321Z,57.78
2022-08-28T12:34:41.022Z,58.28
2022-08-28T12:39:43.507Z,57.94
2022-08-28T12:44:47.053Z,57.15
2022-08-28T12:49:47.909Z,57.72
2022-08-28T12:54:51.202Z,57.77
2022-08-28T12:59:55.706Z,57.57
2022-08-28T13:04:59.449Z,57.01
2022-08-28T13:10:05.889Z,56.01
2022-08-28T13:15:10.041Z,56.50
2022-08-28T13:20:11.125Z,57.37
2022-08-28T13:25:22.645Z,57.02
2022-08-28T13:30:27.426Z,56.78
2022-08-28T13:35:41.187Z,56.63
2022-08-28T13:41:02.881Z,56.97
2022-08-28T13:46:05.372Z,55.89
2022-08-28T13:51:10.837Z,55.34
2022-08-28T13:56:12.861Z,53.90
2022-08-28T14:01:18.059Z,53.91
2022-08-28T14:06:23.737Z,53.80
2022-08-28T14:11:33.295Z,54.01
2022-08-28T14:16:39.613Z,52.17
2022-08-28T14:21:41.888Z,52.23
2022-08-28T14:26:42.675Z,52.12
2022-08-28T14:31:46.498Z,52.77
2022-08-28T14:36:50.856Z,52.10
2022-08-28T14:41:52.040Z,51.77
2022-08-28T14:46:57.108Z,51.62
2022-08-28T14:51:58.218Z,52.76
2022-08-28T14:56:58.967Z,52.79
2022-08-28T15:02:02.113Z,53.13
2022-08-28T15:07:06.485Z,51.46
2022-08-28T15:12:07.731Z,51.56
2022-08-28T15:17:09.803Z,50.22
2022-08-28T15:22:10.735Z,51.19
2022-08-28T15:27:11.702Z,51.43
2022-08-28T15:32:13.771Z,51.70
2022-08-28T15:37:14.448Z,50.70
2022-08-28T15:42:15.615Z,49.19
2022-08-28T15:47:17.608Z,49.64
2022-08-28T15:52:19.501Z,49.12
2022-08-28T15:57:20.230Z,47.75
2022-08-28T16:02:24.500Z,47.58
2022-08-28T16:07:25.675Z,47.53
2022-08-28T16:12:26.497Z,47.97
2022-08-28T16:17:28.580Z,48.34
2022-08-28T16:22:29.420Z,49.29
2022-08-28T16:27:30.226Z,48.64
2022-08-28T16:32:32.261Z,48.44
2022-08-28T16:37:39.662Z,48.54
2022-08-28T16:42:41.431Z,47.27
2022-08-28T16:47:44.522Z,47.11
2022-08-28T16:52:45.197Z,45.93
2022-08-28T16:57:45.897Z,44.88
2022-08-28T17:02:47.992Z,43.99
2022-08-28T17:07:50.151Z,44.72
2022-08-28T17:12:50.976Z,43.43
2022-08-28T17:17:52.972Z,45.32
2022-08-28T17:22:53.670Z,46.34
2022-08-28T17:27:54.473Z,46.61
2022-08-28T17:32:56.566Z,48.40
2022-08-28T17:37:57.656Z,50.36
2022-08-28T17:42:58.430Z,52.70
2022-08-28T17:48:00.507Z,53.90
2022-08-28T17:53:01.253Z,54.66
2022-08-28T17:58:02.667Z,55.36
2022-08-28T18:03:04.671Z,56.01
2022-08-28T18:08:05.721Z,57.18
2022-08-28T18:13:07.305Z,57.84
2022-08-28T18:18:09.684Z,58.04
2022-08-28T18:23:11.110Z,58.94
2022-08-28T18:28:15.682Z,59.72
2022-08-28T18:33:22.226Z,60.03
2022-08-28T18:38:25.523Z,59.95
2022-08-28T18:43:26.205Z,59.78
2022-08-28T18:48:29.743Z,60.92
2022-08-28T18:53:30.432Z,61.96
2022-08-28T18:58:31.204Z,62.08
2022-08-28T19:03:35.210Z,63.67
2022-08-28T19:08:37.735Z,64.12
2022-08-28T19:13:38.582Z,65.58
2022-08-28T19:18:40.800Z,64.99
2022-08-28T19:23:41.670Z,66.38
2022-08-28T19:28:52.580Z,66.32
2022-08-28T19:33:54.698Z,66.03
2022-08-28T19:38:55.596Z,67.83
2022-08-28T19:43:56.482Z,68.79
2022-08-28T19:48:58.848Z,68.84
2022-08-28T19:54:00.125Z,70.40
2022-08-28T19:59:03.055Z,72.56
2022-08-28T20:04:07.419Z,74.09
2022-08-28T20:09:12.576Z,75.15
2022-08-28T20:14:14.454Z,75.96
2022-08-28T20:19:16.768Z,77.29
2022-08-28T20:24:23.631Z,78.70
2022-08-28T20:29:24.719Z,79.55
2022-08-28T20:34:27.425Z,81.50
2022-08-28T20:39:28.469Z,82.50
2022-08-28T20:44:29.348Z,83.83
2022-08-28T20:49:31.382Z,83.62
2022-08-28T20:54:34.800Z,84.32
2022-08-28T20:59:40.207Z,85.50
2022-08-28T21:04:43.619Z,86.66
2022-08-28T21:10:06.261Z,87.31
2022-08-28T21:15:09.020Z,88.02
2022-08-28T21:20:14.264Z,88.57
2022-08-28T21:25:16.042Z,89.56
2022-08-28T21:30:19.365Z,89.92
2022-08-28T21:35:21.586Z,90.16
2022-08-28T21:40:22.458Z,90.17
2022-08-28T21:45:23.223Z,90.24
2022-08-28T21:50:29.058Z,90.53
2022-08-28T21:55:29.895Z,90.75
2022-08-28T22:00:31.445Z,91.34
2022-08-28T22:05:33.478Z,91.89
2022-08-28T22:10:36.417Z,92.57
2022-08-28T22:15:41.984Z,92.80
2022-08-28T22:20:59.542Z,93.19
2022-08-28T22:26:02.896Z,93.20
2022-08-28T22:31:03.625Z,93.26
2022-08-28T22:36:09.905Z,93.92
2022-08-28T22:41:10.897Z,93.66
2022-08-28T22:46:12.429Z,93.94
2022-08-28T22:51:18.313Z,94.54
2022-08-28T22:56:19.128Z,94.85
2022-08-28T23:01:24.441Z,95.31
2022-08-28T23:06:26.454Z,95.27
2022-08-28T23:11:27.301Z,95.09
2022-08-28T23:16:28.168Z,95.07
2022-08-28T23:21:30.266Z,95.87
2022-08-28T23:26:31.119Z,95.90
2022-08-28T23:31:31.833Z,96.44
2022-08-28T23:36:35.858Z,96.63
2022-08-28T23:41:37.211Z,95.97
2022-08-28T23:46:41.068Z,96.50
2022-08-28T23:51:43.909Z,95.73
2022-08-28T23:56:45.533Z,95.90
